Terminal Aerodrome Forecast
Issued by NWS

Home | Current Version | Previous Version | Graphics & Text | Print | Product List | Glossary On
Versions: 1 2 3 4 5 6 7 8 9 10 11 12 13 14 15 16 17 18
962
FTUS43 KMPX 152340
TAFRNH
TAF
KRNH 152340Z 1600/1624 13007KT P6SM SCT150 OVC250
     FM160900 11004KT P6SM VCSH OVC090
     FM161100 12005KT P6SM VCSH OVC040
     FM161300 13007KT 5SM -SHRA BR OVC025
     FM161500 13009KT 5SM -SHRA BR OVC008
     FM162000 14010KT P6SM OVC012=

USA.gov is the U.S. government's official web portal to all federal, state and local government web resources and services.